Time;durP1;ratioP1;P1;durP2;ratioP2;P2;SDS_P1;SDS_P2;PMS_P1;PMS_P2;Temp;Humidity;BMP_temperature;BMP_pressure;BME280_temperature;BME280_humidity;BME280_pressure;Samples;Min_cycle;Max_cycle;Signal;HPM_P1;HPM_P2
2024/01/27 00:02:28;;;;;;;10.20;3.67;;;8.00;71.40;;;;;;5001739;28;20566;-78
2024/01/27 00:04:56;;;;;;;11.57;3.37;;;8.00;71.40;;;;;;5023193;28;20456;-78
2024/01/27 00:07:27;;;;;;;9.77;3.33;;;8.00;71.40;;;;;;5002090;28;20457;-78
2024/01/27 00:09:55;;;;;;;12.50;4.37;;;8.00;71.20;;;;;;5004366;28;20480;-78
2024/01/27 00:12:23;;;;;;;8.73;3.10;;;8.00;71.20;;;;;;5005005;28;20489;-78
2024/01/27 00:14:51;;;;;;;9.30;3.83;;;7.90;71.10;;;;;;5002370;28;20839;-78
2024/01/27 00:17:23;;;;;;;10.10;4.00;;;7.90;71.10;;;;;;5004563;28;20503;-78
2024/01/27 00:19:53;;;;;;;10.68;3.60;;;7.90;71.20;;;;;;5009608;28;20483;-78
2024/01/27 00:22:22;;;;;;;9.97;4.07;;;7.90;71.20;;;;;;5011804;28;20206;-78
2024/01/27 00:24:50;;;;;;;11.33;3.40;;;7.90;71.10;;;;;;5010514;28;20456;-78
2024/01/27 00:27:18;;;;;;;10.73;3.93;;;7.80;71.00;;;;;;5004739;28;20801;-77
2024/01/27 00:29:47;;;;;;;9.10;3.50;;;7.80;71.00;;;;;;5007366;28;20575;-78
2024/01/27 00:32:15;;;;;;;7.50;3.27;;;7.80;70.90;;;;;;5012291;28;20516;-78
2024/01/27 00:34:43;;;;;;;13.63;4.27;;;7.70;70.90;;;;;;5008854;28;20483;-78
2024/01/27 00:37:12;;;;;;;12.00;4.10;;;7.70;70.80;;;;;;5011184;28;20491;-78
2024/01/27 00:39:40;;;;;;;12.88;5.32;;;7.70;70.80;;;;;;5008322;28;20510;-78
2024/01/27 00:42:08;;;;;;;17.52;4.45;;;7.60;70.70;;;;;;5005833;28;20209;-78
2024/01/27 00:44:36;;;;;;;8.43;4.03;;;7.50;70.70;;;;;;5025201;28;20209;-78
2024/01/27 00:47:04;;;;;;;10.23;3.30;;;7.50;70.80;;;;;;5010070;28;20607;-78
2024/01/27 00:49:32;;;;;;;10.73;4.10;;;7.40;70.80;;;;;;5011629;28;20818;-77
2024/01/27 00:52:00;;;;;;;8.15;3.60;;;7.30;70.70;;;;;;5006826;28;20224;-77
2024/01/27 00:54:30;;;;;;;11.60;3.73;;;7.30;70.80;;;;;;5004758;28;20595;-77
2024/01/27 00:56:58;;;;;;;13.30;3.90;;;7.30;70.80;;;;;;5007852;28;20914;-77
2024/01/27 00:59:26;;;;;;;14.00;4.75;;;7.20;70.80;;;;;;5000298;28;20518;-77
2024/01/27 01:01:54;;;;;;;14.48;4.97;;;7.20;70.90;;;;;;4992550;28;20630;-78
2024/01/27 01:04:23;;;;;;;11.10;4.93;;;7.20;70.70;;;;;;4990781;28;20202;-78
2024/01/27 01:06:52;;;;;;;14.43;5.20;;;7.10;70.80;;;;;;4992179;28;20951;-78
2024/01/27 01:09:20;;;;;;;12.25;5.05;;;7.00;70.80;;;;;;4986902;28;20928;-78
2024/01/27 01:11:49;;;;;;;7.68;3.72;;;7.00;70.90;;;;;;4987308;28;20203;-78
2024/01/27 01:14:17;;;;;;;12.47;4.37;;;7.00;71.00;;;;;;4985416;28;20282;-77
2024/01/27 01:16:45;;;;;;;11.43;4.68;;;7.00;71.00;;;;;;4988118;28;20453;-77
2024/01/27 01:19:13;;;;;;;12.68;3.92;;;6.90;70.90;;;;;;4989948;28;20224;-78
2024/01/27 01:21:41;;;;;;;10.13;4.00;;;6.90;70.90;;;;;;4990119;28;20238;-77
2024/01/27 01:24:09;;;;;;;9.95;4.55;;;6.90;71.00;;;;;;4988525;28;20294;-78
2024/01/27 01:26:37;;;;;;;14.98;4.60;;;6.80;70.90;;;;;;4986813;28;20624;-78
2024/01/27 01:29:07;;;;;;;13.32;4.07;;;6.70;70.80;;;;;;4994120;28;20293;-78
2024/01/27 01:31:35;;;;;;;9.00;4.40;;;6.70;70.90;;;;;;5000822;28;20240;-78
2024/01/27 01:34:02;;;;;;;11.48;4.43;;;6.60;71.00;;;;;;4989263;28;20663;-78
2024/01/27 01:36:31;;;;;;;14.10;4.88;;;6.60;71.10;;;;;;4991282;28;20198;-78
2024/01/27 01:38:59;;;;;;;10.40;4.68;;;6.60;71.10;;;;;;4987274;28;20210;-78
2024/01/27 01:41:27;;;;;;;13.93;6.40;;;6.60;71.20;;;;;;4988441;28;20214;-78
2024/01/27 01:43:55;;;;;;;20.10;9.07;;;6.60;71.20;;;;;;4989216;28;20682;-78
2024/01/27 01:46:24;;;;;;;22.25;9.60;;;6.50;71.00;;;;;;4987248;28;20203;-78
2024/01/27 01:48:52;;;;;;;22.60;9.52;;;6.50;71.10;;;;;;4989803;28;20769;-78
2024/01/27 01:51:21;;;;;;;20.90;9.70;;;6.40;71.00;;;;;;4992805;28;20203;-77
2024/01/27 01:53:50;;;;;;;20.00;10.23;;;6.30;70.90;;;;;;4987411;28;20222;-78
2024/01/27 01:56:18;;;;;;;14.85;6.35;;;6.20;71.10;;;;;;4993893;28;20206;-78
2024/01/27 01:58:46;;;;;;;19.98;7.68;;;6.20;71.30;;;;;;4988686;28;20286;-77
2024/01/27 02:01:15;;;;;;;18.63;7.30;;;6.20;71.20;;;;;;4989206;28;20229;-78
2024/01/27 02:03:54;;;;;;;12.98;5.47;;;6.10;71.10;;;;;;5002978;28;20257;-77
2024/01/27 02:06:22;;;;;;;10.85;4.68;;;6.10;71.40;;;;;;4990821;28;20211;-77
2024/01/27 02:08:51;;;;;;;14.30;5.00;;;6.10;71.40;;;;;;4988198;28;20282;-78
2024/01/27 02:11:19;;;;;;;11.73;4.93;;;6.10;71.70;;;;;;4987608;28;20207;-78
2024/01/27 02:13:48;;;;;;;12.10;4.05;;;6.10;71.80;;;;;;4989781;28;20222;-78
2024/01/27 02:16:17;;;;;;;14.10;5.25;;;6.20;71.70;;;;;;5003183;28;20237;-78
2024/01/27 02:18:45;;;;;;;9.73;4.10;;;6.20;71.80;;;;;;5000337;28;20206;-78
2024/01/27 02:21:15;;;;;;;9.90;3.97;;;6.20;71.70;;;;;;4990202;28;20541;-78
2024/01/27 02:23:44;;;;;;;10.18;3.90;;;6.20;71.70;;;;;;4989148;28;20521;-78
2024/01/27 02:26:14;;;;;;;12.75;4.70;;;6.20;71.70;;;;;;4995730;28;20325;-77
2024/01/27 02:28:42;;;;;;;12.18;4.80;;;6.20;71.70;;;;;;4986454;28;20411;-77
2024/01/27 02:31:10;;;;;;;11.15;4.45;;;6.20;71.80;;;;;;4984809;28;20241;-78
2024/01/27 02:33:37;;;;;;;7.50;3.92;;;6.20;71.80;;;;;;4983141;28;20220;-78
2024/01/27 02:36:07;;;;;;;9.13;4.25;;;6.20;71.80;;;;;;4989867;28;20261;-78
2024/01/27 02:38:35;;;;;;;11.43;4.43;;;6.20;71.90;;;;;;4987352;28;20304;-78
2024/01/27 02:41:04;;;;;;;9.63;3.90;;;6.20;71.90;;;;;;4984415;28;20198;-78
2024/01/27 02:43:34;;;;;;;22.85;4.30;;;6.20;71.90;;;;;;4992714;28;20301;-77
2024/01/27 02:46:04;;;;;;;8.05;3.97;;;6.20;71.90;;;;;;4987192;28;20211;-78
2024/01/27 02:48:32;;;;;;;13.02;4.03;;;6.10;71.90;;;;;;4991161;28;20217;-77
2024/01/27 02:51:03;;;;;;;11.75;4.30;;;6.10;71.90;;;;;;4986259;28;20199;-78
2024/01/27 02:53:31;;;;;;;10.80;4.65;;;6.10;72.00;;;;;;5001009;28;20230;-77
2024/01/27 02:55:59;;;;;;;12.27;3.95;;;6.10;72.00;;;;;;4984679;28;20578;-78
2024/01/27 02:58:27;;;;;;;7.00;3.80;;;6.10;72.10;;;;;;4984352;28;21074;-77
2024/01/27 03:00:57;;;;;;;8.68;3.65;;;6.10;72.10;;;;;;4986999;28;20261;-77
2024/01/27 03:03:26;;;;;;;12.70;4.13;;;6.10;72.00;;;;;;4988957;28;20686;-77
2024/01/27 03:05:54;;;;;;;13.63;4.80;;;6.00;72.00;;;;;;4985102;28;20609;-77
2024/01/27 03:08:22;;;;;;;11.98;4.88;;;6.00;72.00;;;;;;4984977;28;20278;-77
2024/01/27 03:10:50;;;;;;;9.68;3.90;;;6.00;71.90;;;;;;4991494;28;20207;-78
2024/01/27 03:13:19;;;;;;;14.18;6.45;;;5.90;71.70;;;;;;4987484;28;20684;-77
2024/01/27 03:15:47;;;;;;;11.45;5.60;;;5.80;71.50;;;;;;4982673;28;20265;-77
2024/01/27 03:18:16;;;;;;;13.90;5.72;;;5.70;71.60;;;;;;4987720;28;20206;-77
2024/01/27 03:20:44;;;;;;;15.85;5.90;;;5.60;71.90;;;;;;4988467;28;20233;-78
2024/01/27 03:23:12;;;;;;;10.15;4.95;;;5.60;71.90;;;;;;4985400;28;20694;-77
2024/01/27 03:25:40;;;;;;;17.83;6.60;;;5.50;71.80;;;;;;4983915;28;20317;-77
2024/01/27 03:28:08;;;;;;;16.77;6.88;;;5.40;71.80;;;;;;4987660;28;20237;-78
2024/01/27 03:30:36;;;;;;;16.20;6.65;;;5.30;71.80;;;;;;4983832;28;20359;-77
2024/01/27 03:33:06;;;;;;;15.82;7.57;;;5.20;71.80;;;;;;4987537;28;20207;-77
2024/01/27 03:35:35;;;;;;;15.50;6.90;;;5.20;71.90;;;;;;4986369;28;20241;-78
2024/01/27 03:38:06;;;;;;;15.43;6.85;;;5.10;72.00;;;;;;4985986;28;20652;-77
2024/01/27 03:40:33;;;;;;;17.02;6.28;;;5.10;72.10;;;;;;4991212;28;20301;-78
2024/01/27 03:43:01;;;;;;;12.63;6.82;;;5.10;72.30;;;;;;4985959;28;20516;-78
2024/01/27 03:45:29;;;;;;;14.07;6.28;;;5.10;72.40;;;;;;4987872;28;20289;-78
2024/01/27 03:47:59;;;;;;;10.43;5.03;;;5.10;72.60;;;;;;4981551;28;20210;-78
2024/01/27 03:50:27;;;;;;;16.48;5.97;;;5.10;72.60;;;;;;4985765;28;20211;-77
2024/01/27 03:52:57;;;;;;;13.35;5.60;;;5.20;72.60;;;;;;4985107;28;20230;-77
2024/01/27 03:55:25;;;;;;;12.38;5.53;;;5.20;72.60;;;;;;4983481;28;20584;-77
2024/01/27 03:57:53;;;;;;;11.77;5.57;;;5.20;72.70;;;;;;4985653;28;20226;-77
2024/01/27 04:00:21;;;;;;;13.25;4.03;;;5.30;72.70;;;;;;4985276;28;20215;-78
2024/01/27 04:02:50;;;;;;;9.35;4.10;;;5.30;72.70;;;;;;4983964;28;20241;-78
2024/01/27 04:05:18;;;;;;;12.73;4.25;;;5.30;72.70;;;;;;5001629;28;20278;-77
2024/01/27 04:07:46;;;;;;;13.60;4.60;;;5.30;72.80;;;;;;4984660;28;20228;-77
2024/01/27 04:10:15;;;;;;;16.55;5.32;;;5.30;72.80;;;;;;4987088;28;20296;-77
2024/01/27 04:12:43;;;;;;;12.10;4.55;;;5.30;72.70;;;;;;4984407;28;20229;-78
2024/01/27 04:15:11;;;;;;;10.15;4.28;;;5.30;72.60;;;;;;4986151;28;20307;-78
2024/01/27 04:17:40;;;;;;;12.50;4.65;;;5.30;72.50;;;;;;4986752;28;20587;-77
2024/01/27 04:20:10;;;;;;;12.48;4.82;;;5.20;72.60;;;;;;4988772;28;20211;-78
2024/01/27 04:22:39;;;;;;;11.57;5.68;;;5.20;72.60;;;;;;5000205;28;20245;-77
2024/01/27 04:25:08;;;;;;;14.15;5.30;;;5.10;72.30;;;;;;4980573;28;20843;-78
2024/01/27 04:27:39;;;;;;;12.70;5.10;;;5.00;72.20;;;;;;4986197;28;20203;-78
2024/01/27 04:30:09;;;;;;;14.70;5.57;;;4.90;72.20;;;;;;4991241;28;20210;-77
2024/01/27 04:32:37;;;;;;;10.52;4.95;;;4.80;72.30;;;;;;5003770;28;20284;-77
2024/01/27 04:35:09;;;;;;;13.00;5.95;;;4.70;72.40;;;;;;5004729;28;20217;-78
2024/01/27 04:37:37;;;;;;;16.50;5.72;;;4.60;72.40;;;;;;5003747;28;20297;-77
2024/01/27 04:40:07;;;;;;;16.05;6.50;;;4.60;72.60;;;;;;5005926;28;20687;-77
2024/01/27 04:42:36;;;;;;;17.15;6.20;;;4.50;72.70;;;;;;5005680;28;20300;-78
2024/01/27 04:45:06;;;;;;;14.15;6.40;;;4.50;72.90;;;;;;5006869;28;20281;-77
2024/01/27 04:47:34;;;;;;;11.90;5.75;;;4.50;73.00;;;;;;5001153;28;20237;-78
2024/01/27 04:50:03;;;;;;;15.60;5.10;;;4.50;72.90;;;;;;4999713;28;20202;-77
2024/01/27 04:52:31;;;;;;;12.73;5.43;;;4.50;73.00;;;;;;5003464;28;20238;-77
2024/01/27 04:54:59;;;;;;;14.35;5.80;;;4.50;73.00;;;;;;5002902;28;20397;-78
2024/01/27 04:57:27;;;;;;;19.30;6.25;;;4.50;73.00;;;;;;5003389;28;20256;-77
2024/01/27 04:59:56;;;;;;;14.07;5.50;;;4.40;72.90;;;;;;5002910;28;20205;-77
2024/01/27 05:02:27;;;;;;;16.75;5.88;;;4.40;73.00;;;;;;5018559;28;20233;-77
2024/01/27 05:04:55;;;;;;;11.80;5.20;;;4.40;73.00;;;;;;5003817;28;20309;-78
2024/01/27 05:07:23;;;;;;;11.90;5.60;;;4.40;73.30;;;;;;5008744;28;20201;-77
2024/01/27 05:09:51;;;;;;;15.60;5.78;;;4.40;73.30;;;;;;5010455;28;20647;-78
2024/01/27 05:12:19;;;;;;;12.55;6.00;;;4.40;73.20;;;;;;5008547;28;20295;-77
2024/01/27 05:14:47;;;;;;;11.90;5.47;;;4.40;73.20;;;;;;5007117;28;20217;-77
2024/01/27 05:17:15;;;;;;;14.40;5.70;;;4.30;73.10;;;;;;5006807;28;20213;-77
2024/01/27 05:19:45;;;;;;;11.25;4.78;;;4.30;73.30;;;;;;5009462;28;20205;-78
2024/01/27 05:22:14;;;;;;;9.20;4.82;;;4.30;73.60;;;;;;5005655;28;20202;-77
2024/01/27 05:24:43;;;;;;;10.40;4.65;;;4.40;73.70;;;;;;5010145;28;20191;-77
2024/01/27 05:27:10;;;;;;;13.82;4.90;;;4.40;73.80;;;;;;5007754;28;20729;-77
2024/01/27 05:29:39;;;;;;;12.68;5.05;;;4.50;73.80;;;;;;5000888;28;20397;-77
2024/01/27 05:32:07;;;;;;;10.85;5.63;;;4.50;73.70;;;;;;5015708;28;20257;-77
2024/01/27 05:34:35;;;;;;;12.90;5.90;;;4.60;73.70;;;;;;5006480;28;20223;-78
2024/01/27 05:37:05;;;;;;;10.65;4.72;;;4.60;73.70;;;;;;5008513;28;20300;-77
2024/01/27 05:39:34;;;;;;;12.80;5.10;;;4.60;73.70;;;;;;5007918;28;20285;-78
2024/01/27 05:42:05;;;;;;;20.70;5.80;;;4.60;73.70;;;;;;5017047;28;20236;-79
2024/01/27 05:44:33;;;;;;;17.48;5.10;;;4.60;73.60;;;;;;5007640;28;20495;-78
2024/01/27 05:47:01;;;;;;;13.48;5.70;;;4.60;73.50;;;;;;5009422;28;20877;-77
2024/01/27 05:49:30;;;;;;;14.98;7.10;;;4.60;73.40;;;;;;5006305;28;20221;-77
2024/01/27 05:51:58;;;;;;;14.18;8.00;;;4.50;73.00;;;;;;5011076;28;20322;-77
2024/01/27 05:54:27;;;;;;;22.38;9.15;;;4.40;73.00;;;;;;5005800;28;20205;-78
2024/01/27 05:56:55;;;;;;;29.00;12.88;;;4.30;73.10;;;;;;5004650;28;20222;-77
2024/01/27 05:59:23;;;;;;;28.05;14.63;;;4.20;73.20;;;;;;5007137;28;20236;-78
2024/01/27 06:01:51;;;;;;;57.90;28.20;;;4.20;73.40;;;;;;5013913;28;20348;-78
2024/01/27 06:04:19;;;;;;;23.92;10.60;;;4.20;73.60;;;;;;5010764;28;20646;-78
2024/01/27 06:06:47;;;;;;;13.45;7.15;;;4.20;73.70;;;;;;5010863;28;20221;-77
2024/01/27 06:09:15;;;;;;;12.90;5.70;;;4.20;73.80;;;;;;5008663;28;20801;-78
2024/01/27 06:11:45;;;;;;;11.65;5.70;;;4.30;73.80;;;;;;5006028;28;20213;-77
2024/01/27 06:14:13;;;;;;;19.25;6.50;;;4.30;73.80;;;;;;5009374;28;20202;-77
2024/01/27 06:16:41;;;;;;;21.02;6.00;;;4.30;73.80;;;;;;5010701;28;20262;-78
2024/01/27 06:19:10;;;;;;;16.00;7.53;;;4.40;73.70;;;;;;5012431;28;20206;-78
2024/01/27 06:21:38;;;;;;;21.80;12.18;;;4.30;73.30;;;;;;5009863;28;20967;-77
2024/01/27 06:24:07;;;;;;;33.20;17.50;;;4.20;73.20;;;;;;5026896;28;20313;-78
2024/01/27 06:26:34;;;;;;;43.40;19.25;;;4.10;73.20;;;;;;5010715;28;20264;-78
2024/01/27 06:29:04;;;;;;;35.15;18.23;;;4.00;73.30;;;;;;5010684;28;20639;-78
2024/01/27 06:31:32;;;;;;;40.33;19.77;;;4.00;73.30;;;;;;5010610;28;20272;-77
2024/01/27 06:34:00;;;;;;;41.47;17.73;;;3.90;73.30;;;;;;5007178;28;20278;-78
2024/01/27 06:36:28;;;;;;;30.27;19.33;;;3.90;73.50;;;;;;5009762;28;20548;-78
2024/01/27 06:38:56;;;;;;;30.90;14.98;;;3.80;73.30;;;;;;5013582;28;20276;-78
2024/01/27 06:41:24;;;;;;;29.15;13.63;;;3.70;73.60;;;;;;5010327;28;20240;-78
2024/01/27 06:43:52;;;;;;;28.70;12.73;;;3.60;73.60;;;;;;5010073;28;20202;-78
2024/01/27 06:46:28;;;;;;;22.42;13.02;;;3.50;73.70;;;;;;5008329;28;20289;-78
2024/01/27 06:48:56;;;;;;;25.52;13.30;;;3.60;74.20;;;;;;5023531;28;20277;-78
2024/01/27 06:51:26;;;;;;;19.05;12.10;;;3.60;74.20;;;;;;5005196;28;20799;-78
2024/01/27 06:53:54;;;;;;;22.27;10.57;;;3.60;74.20;;;;;;5007009;28;20265;-77
2024/01/27 06:56:22;;;;;;;24.88;10.15;;;3.60;74.00;;;;;;5026375;28;20281;-77
2024/01/27 06:58:50;;;;;;;16.45;7.53;;;3.60;74.10;;;;;;5007189;28;20305;-77
2024/01/27 07:01:18;;;;;;;16.27;6.90;;;3.60;74.20;;;;;;5007456;28;20721;-77
2024/01/27 07:03:47;;;;;;;17.50;7.63;;;3.60;74.10;;;;;;5009524;28;20206;-77
2024/01/27 07:06:16;;;;;;;21.80;8.05;;;3.60;74.10;;;;;;5006235;28;20236;-77
2024/01/27 07:08:45;;;;;;;19.67;8.95;;;3.70;74.20;;;;;;5005359;28;20265;-81
2024/01/27 07:11:13;;;;;;;21.63;11.80;;;3.60;74.10;;;;;;5007760;28;20212;-78
2024/01/27 07:13:42;;;;;;;16.58;11.07;;;3.70;74.30;;;;;;5007028;28;20189;-77
2024/01/27 07:16:10;;;;;;;17.38;10.88;;;3.70;74.40;;;;;;5025678;28;20283;-77
2024/01/27 07:18:38;;;;;;;24.38;11.82;;;3.70;74.50;;;;;;5001966;28;20205;-77
2024/01/27 07:21:08;;;;;;;21.10;11.68;;;3.80;74.50;;;;;;5007066;28;20228;-78
2024/01/27 07:23:36;;;;;;;18.27;8.70;;;3.90;74.60;;;;;;5009466;28;20210;-77
2024/01/27 07:26:04;;;;;;;16.67;8.25;;;3.90;74.50;;;;;;5004622;28;20190;-78
2024/01/27 07:28:32;;;;;;;16.77;6.50;;;4.00;74.40;;;;;;5002443;28;20292;-78
2024/01/27 07:31:00;;;;;;;11.10;5.90;;;4.00;74.40;;;;;;5018928;28;20562;-78
2024/01/27 07:33:28;;;;;;;14.00;6.68;;;4.00;74.30;;;;;;5008175;28;20698;-78
2024/01/27 07:35:57;;;;;;;16.10;7.40;;;4.00;74.30;;;;;;5002916;28;20218;-77
2024/01/27 07:38:26;;;;;;;13.98;7.55;;;4.00;74.20;;;;;;5017934;28;20206;-78
2024/01/27 07:40:54;;;;;;;13.30;7.15;;;4.10;74.20;;;;;;5004672;28;20232;-78
2024/01/27 07:43:22;;;;;;;19.13;8.00;;;4.10;74.30;;;;;;5004505;28;20212;-78
2024/01/27 07:45:52;;;;;;;15.20;7.30;;;4.10;74.30;;;;;;5000318;28;20297;-78
2024/01/27 07:48:20;;;;;;;18.73;7.93;;;4.10;74.20;;;;;;5019132;28;20212;-78
2024/01/27 07:50:50;;;;;;;16.83;7.78;;;4.10;74.10;;;;;;5008005;28;20252;-77
2024/01/27 07:53:18;;;;;;;16.35;7.93;;;4.10;74.10;;;;;;5007277;28;20201;-77
2024/01/27 07:55:47;;;;;;;22.88;9.50;;;4.00;74.10;;;;;;5006029;28;20315;-78
2024/01/27 07:58:15;;;;;;;18.77;8.73;;;4.00;74.10;;;;;;5010749;28;20205;-78
2024/01/27 08:00:43;;;;;;;20.25;9.15;;;4.00;74.10;;;;;;5004477;28;20237;-77
2024/01/27 08:03:12;;;;;;;18.80;9.75;;;4.00;74.00;;;;;;5006556;28;20273;-77
2024/01/27 08:05:40;;;;;;;16.40;8.88;;;4.00;74.00;;;;;;5005458;28;20200;-78
2024/01/27 08:08:09;;;;;;;34.20;13.68;;;3.90;73.90;;;;;;5003948;28;20553;-77
2024/01/27 08:10:37;;;;;;;41.72;20.23;;;3.80;73.90;;;;;;5004992;28;20201;-78
2024/01/27 08:13:08;;;;;;;95.57;45.17;;;3.80;74.00;;;;;;5001114;28;20989;-77
2024/01/27 08:15:35;;;;;;;85.75;38.28;;;3.80;74.00;;;;;;5005958;28;20206;-77
2024/01/27 08:18:04;;;;;;;92.63;43.10;;;3.70;74.10;;;;;;5001552;28;20241;-77
2024/01/27 08:20:32;;;;;;;91.63;46.75;;;3.70;74.20;;;;;;5013895;28;20235;-77
2024/01/27 08:23:00;;;;;;;68.53;42.00;;;3.60;74.30;;;;;;5003961;28;20698;-77
2024/01/27 08:25:31;;;;;;;53.92;34.22;;;3.60;74.40;;;;;;5005934;28;20297;-77
2024/01/27 08:27:59;;;;;;;41.88;29.83;;;3.60;74.60;;;;;;5004312;28;20652;-78
2024/01/27 08:30:28;;;;;;;37.60;25.98;;;3.60;74.80;;;;;;5017095;28;20242;-78
2024/01/27 08:32:56;;;;;;;36.10;22.30;;;3.70;75.00;;;;;;5005085;28;20210;-78
2024/01/27 08:35:24;;;;;;;42.63;23.45;;;3.80;75.00;;;;;;5005886;28;20636;-78
2024/01/27 08:37:52;;;;;;;38.97;25.00;;;3.80;75.10;;;;;;5003562;28;20919;-77
2024/01/27 08:40:21;;;;;;;38.00;22.15;;;3.80;75.30;;;;;;5023740;28;20223;-77
2024/01/27 08:42:49;;;;;;;46.67;30.20;;;3.90;75.30;;;;;;5010703;28;20834;-77
2024/01/27 08:45:17;;;;;;;43.70;28.45;;;4.00;75.40;;;;;;5008174;28;20210;-77
2024/01/27 08:47:47;;;;;;;40.72;21.40;;;4.10;75.50;;;;;;5010987;28;20220;-78
2024/01/27 08:50:15;;;;;;;33.15;18.27;;;4.10;75.40;;;;;;5015299;28;20241;-77
2024/01/27 08:52:43;;;;;;;31.52;15.45;;;4.10;75.40;;;;;;5007145;28;20288;-78
2024/01/27 08:55:11;;;;;;;29.70;13.50;;;4.10;75.50;;;;;;5018931;28;20220;-77
2024/01/27 08:57:39;;;;;;;33.08;13.02;;;4.10;75.70;;;;;;5006937;28;20214;-78
2024/01/27 09:00:09;;;;;;;25.38;13.35;;;4.10;75.90;;;;;;5004504;28;20288;-78
2024/01/27 09:02:37;;;;;;;35.42;14.13;;;4.20;76.20;;;;;;5011333;28;20206;-77
2024/01/27 09:05:07;;;;;;;33.17;15.98;;;4.40;76.20;;;;;;5008447;28;20214;-77
2024/01/27 09:07:35;;;;;;;24.70;11.70;;;4.40;76.10;;;;;;5009436;28;20277;-77
2024/01/27 09:10:05;;;;;;;28.45;13.25;;;4.50;76.00;;;;;;5008875;28;20713;-78
2024/01/27 09:12:33;;;;;;;27.50;11.10;;;4.60;76.00;;;;;;5004878;28;20224;-78
2024/01/27 09:15:01;;;;;;;19.30;7.95;;;4.70;76.00;;;;;;5009134;28;20206;-78
2024/01/27 09:17:29;;;;;;;14.68;5.20;;;4.70;76.00;;;;;;5010865;28;20233;-77
2024/01/27 09:19:59;;;;;;;20.20;10.20;;;4.80;76.20;;;;;;5011072;28;20272;-77
2024/01/27 09:22:29;;;;;;;64.13;15.20;;;4.90;76.30;;;;;;5012310;28;20864;-78
2024/01/27 09:24:57;;;;;;;37.35;11.32;;;5.00;76.30;;;;;;5006051;28;20233;-78
2024/01/27 09:27:26;;;;;;;229.85;29.42;;;5.10;76.20;;;;;;5009585;28;20898;-77
2024/01/27 09:29:54;;;;;;;37.92;10.18;;;5.10;76.20;;;;;;5007917;28;20972;-77
2024/01/27 09:32:22;;;;;;;33.38;8.32;;;5.20;76.20;;;;;;5005346;28;20240;-77
2024/01/27 09:34:50;;;;;;;175.43;20.23;;;5.30;76.10;;;;;;5004281;28;20693;-77
2024/01/27 09:37:18;;;;;;;58.58;9.57;;;5.30;76.20;;;;;;5005555;28;20216;-78
2024/01/27 09:39:48;;;;;;;18.83;5.97;;;5.30;76.20;;;;;;5006176;28;20220;-78
2024/01/27 09:42:19;;;;;;;18.10;6.22;;;5.40;76.20;;;;;;5010786;28;20197;-77
2024/01/27 09:44:49;;;;;;;22.48;6.60;;;5.40;76.10;;;;;;5006047;28;20588;-78
2024/01/27 09:47:19;;;;;;;14.63;5.53;;;5.50;76.20;;;;;;5015063;28;20206;-77
2024/01/27 09:49:48;;;;;;;16.88;4.97;;;5.50;76.10;;;;;;5003850;28;20201;-77
2024/01/27 09:52:17;;;;;;;16.20;3.85;;;5.50;76.10;;;;;;5005299;28;20244;-78
2024/01/27 09:54:45;;;;;;;12.77;4.32;;;5.50;76.10;;;;;;5005128;28;20204;-78
2024/01/27 09:57:15;;;;;;;12.13;4.45;;;5.50;76.20;;;;;;5006990;28;20260;-78
2024/01/27 09:59:46;;;;;;;12.23;4.22;;;5.60;76.20;;;;;;5006211;28;20217;-77
2024/01/27 10:02:16;;;;;;;13.30;4.30;;;5.60;76.20;;;;;;5006042;28;20226;-78
2024/01/27 10:04:48;;;;;;;15.45;4.20;;;5.60;76.20;;;;;;5007728;28;20458;-78
2024/01/27 10:07:16;;;;;;;17.65;4.88;;;5.70;76.20;;;;;;5015034;28;20696;-78
2024/01/27 10:09:50;;;;;;;14.35;4.68;;;5.70;76.20;;;;;;5007674;28;20720;-78
2024/01/27 10:12:21;;;;;;;16.67;4.32;;;5.70;76.20;;;;;;5022596;28;20209;-78
2024/01/27 10:14:50;;;;;;;17.15;4.95;;;5.80;76.10;;;;;;5006342;28;20213;-78
2024/01/27 10:17:22;;;;;;;10.55;4.15;;;5.80;76.10;;;;;;5005640;28;20710;-78
2024/01/27 10:20:00;;;;;;;17.35;5.32;;;5.80;76.10;;;;;;5005000;28;20213;-78
2024/01/27 10:22:29;;;;;;;14.75;4.78;;;5.80;76.10;;;;;;5012032;28;20283;-78
2024/01/27 10:24:57;;;;;;;14.13;4.07;;;5.90;76.10;;;;;;5003851;28;20202;-78
2024/01/27 10:27:26;;;;;;;26.67;4.63;;;5.90;76.10;;;;;;5013158;28;20198;-78
2024/01/27 10:29:56;;;;;;;14.55;3.60;;;5.90;76.20;;;;;;5007826;28;20209;-78
2024/01/27 10:32:25;;;;;;;19.45;4.80;;;6.00;76.20;;;;;;5008942;28;20249;-78
2024/01/27 10:35:03;;;;;;;15.25;4.25;;;6.00;76.10;;;;;;5009952;28;20609;-78
2024/01/27 10:37:31;;;;;;;14.20;3.65;;;6.10;76.10;;;;;;5006055;28;20225;-78
2024/01/27 10:40:04;;;;;;;9.82;3.35;;;6.10;76.10;;;;;;5003177;28;20234;-78
2024/01/27 10:42:33;;;;;;;16.63;4.25;;;6.10;76.10;;;;;;5017612;28;20301;-78
2024/01/27 10:45:02;;;;;;;18.13;3.67;;;6.10;76.10;;;;;;5010043;28;20205;-78
2024/01/27 10:47:31;;;;;;;19.30;5.20;;;6.10;76.20;;;;;;5004537;28;20226;-78
2024/01/27 10:50:01;;;;;;;16.30;5.60;;;6.20;76.10;;;;;;5004579;28;20221;-77
2024/01/27 10:52:32;;;;;;;18.25;4.63;;;6.20;76.10;;;;;;5000144;28;20218;-77
2024/01/27 10:55:03;;;;;;;13.88;5.10;;;6.20;76.10;;;;;;5021943;28;20213;-78
2024/01/27 10:57:34;;;;;;;14.45;4.43;;;6.30;76.10;;;;;;5016378;28;20593;-78
2024/01/27 11:00:06;;;;;;;12.70;3.78;;;6.30;76.10;;;;;;5018625;28;20202;-78
2024/01/27 11:02:36;;;;;;;12.23;3.97;;;6.40;76.10;;;;;;5001586;28;20244;-77
2024/01/27 11:05:14;;;;;;;17.55;4.30;;;6.40;76.00;;;;;;5000338;28;20214;-78
2024/01/27 11:07:43;;;;;;;14.88;3.47;;;6.40;76.00;;;;;;5008787;28;20597;-78
2024/01/27 11:10:11;;;;;;;13.13;3.88;;;6.50;76.00;;;;;;5011018;28;20209;-78
2024/01/27 11:12:42;;;;;;;18.38;4.32;;;6.50;75.90;;;;;;5009074;28;20209;-77
2024/01/27 11:15:10;;;;;;;18.73;4.07;;;6.50;76.00;;;;;;5009254;28;20241;-78
2024/01/27 11:17:44;;;;;;;23.23;4.50;;;6.60;76.00;;;;;;5005491;28;20267;-77
2024/01/27 11:20:13;;;;;;;15.77;4.15;;;6.60;76.00;;;;;;5012231;28;20456;-78
2024/01/27 11:22:43;;;;;;;15.60;3.63;;;6.60;76.00;;;;;;5008324;28;20229;-78
2024/01/27 11:25:19;;;;;;;17.55;3.90;;;6.70;76.00;;;;;;5006786;28;20256;-78
2024/01/27 11:27:48;;;;;;;11.60;3.97;;;6.70;76.00;;;;;;5006299;28;20548;-78
2024/01/27 11:30:27;;;;;;;11.73;3.50;;;6.70;76.00;;;;;;5008177;28;20203;-78
2024/01/27 11:32:56;;;;;;;12.70;4.13;;;6.80;76.00;;;;;;5006474;28;20220;-77
2024/01/27 11:35:25;;;;;;;13.80;3.63;;;6.80;76.00;;;;;;5012548;28;20457;-78
2024/01/27 11:37:53;;;;;;;14.50;4.68;;;6.80;75.90;;;;;;5012277;28;20480;-78
2024/01/27 11:40:22;;;;;;;14.95;3.50;;;6.80;75.70;;;;;;5013210;28;20213;-78
2024/01/27 11:43:01;;;;;;;17.08;3.80;;;6.90;75.90;;;;;;5012253;28;20201;-78
2024/01/27 11:45:32;;;;;;;20.10;4.17;;;6.90;75.70;;;;;;5005759;28;20217;-78
2024/01/27 11:48:01;;;;;;;14.00;4.07;;;6.90;75.70;;;;;;5004184;28;20512;-78
2024/01/27 11:50:30;;;;;;;15.67;4.00;;;6.90;75.70;;;;;;5011041;28;20233;-79
2024/01/27 11:52:58;;;;;;;11.68;3.80;;;6.90;75.60;;;;;;5006995;28;20456;-77
2024/01/27 11:55:25;;;;;;;14.25;3.63;;;6.90;75.70;;;;;;5007051;28;20211;-79
2024/01/27 11:57:54;;;;;;;12.20;3.80;;;7.00;75.70;;;;;;5009773;28;20225;-78
2024/01/27 12:00:23;;;;;;;10.80;2.90;;;7.00;75.70;;;;;;5021843;28;20484;-78
2024/01/27 12:02:52;;;;;;;13.88;3.15;;;7.00;75.60;;;;;;5010513;28;20452;-78
2024/01/27 12:05:20;;;;;;;9.60;3.40;;;7.10;75.50;;;;;;5007693;28;20205;-79
2024/01/27 12:07:49;;;;;;;9.70;3.20;;;7.10;75.40;;;;;;5006039;28;20463;-79
2024/01/27 12:10:17;;;;;;;22.77;3.72;;;7.10;75.40;;;;;;5010100;28;20812;-79
2024/01/27 12:12:45;;;;;;;12.07;2.78;;;7.20;75.40;;;;;;5015717;28;20201;-79
2024/01/27 12:15:15;;;;;;;12.50;3.25;;;7.20;75.30;;;;;;5009742;28;20660;-79
2024/01/27 12:17:51;;;;;;;15.40;3.90;;;7.20;75.30;;;;;;5016573;28;20210;-79
2024/01/27 12:20:19;;;;;;;16.90;4.27;;;7.20;75.20;;;;;;5009286;28;20459;-78
2024/01/27 12:22:47;;;;;;;8.20;2.87;;;7.20;75.20;;;;;;5012392;28;20547;-78
2024/01/27 12:25:16;;;;;;;13.50;2.83;;;7.20;75.10;;;;;;5011864;28;20460;-80
2024/01/27 12:27:45;;;;;;;11.77;3.20;;;7.20;75.20;;;;;;5008746;28;20528;-79
2024/01/27 12:30:14;;;;;;;13.43;3.50;;;7.30;75.10;;;;;;5009997;28;20459;-78
2024/01/27 12:32:44;;;;;;;16.77;3.33;;;7.30;75.00;;;;;;5016524;28;20448;-78
2024/01/27 12:35:13;;;;;;;20.13;3.57;;;7.30;74.90;;;;;;5013437;28;20521;-79
2024/01/27 12:37:44;;;;;;;16.60;3.43;;;7.30;75.00;;;;;;5014346;28;20469;-78
2024/01/27 12:40:19;;;;;;;10.83;3.23;;;7.40;74.90;;;;;;5017352;28;20564;-79
2024/01/27 12:42:51;;;;;;;19.93;4.53;;;7.40;74.80;;;;;;5012882;28;20463;-78
2024/01/27 12:45:19;;;;;;;11.60;2.67;;;7.40;74.60;;;;;;5012825;28;21092;-78
2024/01/27 12:47:50;;;;;;;24.87;9.67;;;7.40;74.50;;;;;;5014059;28;20934;-78
2024/01/27 12:50:19;;;;;;;14.93;6.13;;;7.40;74.40;;;;;;5016856;28;20995;-78
2024/01/27 12:52:47;;;;;;;14.57;4.55;;;7.40;74.40;;;;;;5014286;28;20475;-78
2024/01/27 12:55:15;;;;;;;13.50;3.27;;;7.40;74.30;;;;;;5016579;28;20205;-78